sensor_id;sensor_type;location;lat;lon;timestamp;P1;durP1;ratioP1;P2;durP2;ratioP2
58362;SDS011;54977;51.510;7.522;2022-09-30T00:04:42;12.40;;;7.93;;
58362;SDS011;54977;51.510;7.522;2022-09-30T00:09:44;14.20;;;7.53;;
58362;SDS011;54977;51.510;7.522;2022-09-30T00:14:47;11.82;;;7.03;;
58362;SDS011;54977;51.510;7.522;2022-09-30T00:19:50;14.10;;;7.53;;
58362;SDS011;54977;51.510;7.522;2022-09-30T00:24:52;9.98;;;7.28;;
58362;SDS011;54977;51.510;7.522;2022-09-30T00:29:54;11.75;;;7.10;;
58362;SDS011;54977;51.510;7.522;2022-09-30T00:34:57;13.25;;;7.03;;
58362;SDS011;54977;51.510;7.522;2022-09-30T00:39:59;14.10;;;7.03;;
58362;SDS011;54977;51.510;7.522;2022-09-30T00:45:03;15.27;;;8.27;;
58362;SDS011;54977;51.510;7.522;2022-09-30T00:50:10;11.55;;;7.78;;
58362;SDS011;54977;51.510;7.522;2022-09-30T00:55:21;11.65;;;7.53;;
58362;SDS011;54977;51.510;7.522;2022-09-30T01:00:29;12.20;;;7.70;;
58362;SDS011;54977;51.510;7.522;2022-09-30T01:05:33;13.48;;;7.78;;
58362;SDS011;54977;51.510;7.522;2022-09-30T01:10:35;11.50;;;7.72;;
58362;SDS011;54977;51.510;7.522;2022-09-30T01:15:46;10.80;;;7.25;;
58362;SDS011;54977;51.510;7.522;2022-09-30T01:26:36;15.05;;;8.15;;
58362;SDS011;54977;51.510;7.522;2022-09-30T01:31:54;12.98;;;8.20;;
58362;SDS011;54977;51.510;7.522;2022-09-30T01:37:07;14.23;;;8.37;;
58362;SDS011;54977;51.510;7.522;2022-09-30T01:42:16;12.50;;;8.15;;
58362;SDS011;54977;51.510;7.522;2022-09-30T01:47:25;14.88;;;8.45;;
58362;SDS011;54977;51.510;7.522;2022-09-30T01:52:32;13.25;;;8.32;;
58362;SDS011;54977;51.510;7.522;2022-09-30T01:57:40;10.82;;;8.18;;
58362;SDS011;54977;51.510;7.522;2022-09-30T02:02:48;12.02;;;7.63;;
58362;SDS011;54977;51.510;7.522;2022-09-30T02:07:53;11.63;;;7.57;;
58362;SDS011;54977;51.510;7.522;2022-09-30T02:13:01;11.02;;;7.22;;
58362;SDS011;54977;51.510;7.522;2022-09-30T02:18:07;13.82;;;7.50;;
58362;SDS011;54977;51.510;7.522;2022-09-30T02:23:14;12.15;;;7.50;;
58362;SDS011;54977;51.510;7.522;2022-09-30T02:28:21;14.00;;;8.02;;
58362;SDS011;54977;51.510;7.522;2022-09-30T02:33:29;14.63;;;7.78;;
58362;SDS011;54977;51.510;7.522;2022-09-30T02:38:36;13.82;;;7.97;;
58362;SDS011;54977;51.510;7.522;2022-09-30T02:43:44;12.32;;;7.60;;
58362;SDS011;54977;51.510;7.522;2022-09-30T02:48:48;11.63;;;8.35;;
58362;SDS011;54977;51.510;7.522;2022-09-30T02:54:02;12.98;;;8.05;;
58362;SDS011;54977;51.510;7.522;2022-09-30T02:59:09;18.67;;;7.88;;
58362;SDS011;54977;51.510;7.522;2022-09-30T03:04:13;22.15;;;8.05;;
58362;SDS011;54977;51.510;7.522;2022-09-30T03:09:16;13.50;;;8.30;;
58362;SDS011;54977;51.510;7.522;2022-09-30T03:14:25;16.85;;;8.25;;
58362;SDS011;54977;51.510;7.522;2022-09-30T03:19:40;12.48;;;8.05;;
58362;SDS011;54977;51.510;7.522;2022-09-30T03:24:58;14.45;;;8.80;;
58362;SDS011;54977;51.510;7.522;2022-09-30T03:30:14;16.67;;;8.52;;
58362;SDS011;54977;51.510;7.522;2022-09-30T03:35:20;13.05;;;8.63;;
58362;SDS011;54977;51.510;7.522;2022-09-30T03:40:29;14.30;;;8.77;;
58362;SDS011;54977;51.510;7.522;2022-09-30T03:45:40;14.63;;;8.95;;
58362;SDS011;54977;51.510;7.522;2022-09-30T03:50:51;14.80;;;8.05;;
58362;SDS011;54977;51.510;7.522;2022-09-30T03:55:53;14.25;;;8.80;;
58362;SDS011;54977;51.510;7.522;2022-09-30T04:00:55;18.10;;;8.88;;
58362;SDS011;54977;51.510;7.522;2022-09-30T04:11:01;14.32;;;9.15;;
58362;SDS011;54977;51.510;7.522;2022-09-30T04:16:04;13.48;;;8.48;;
58362;SDS011;54977;51.510;7.522;2022-09-30T04:21:09;15.38;;;9.20;;
58362;SDS011;54977;51.510;7.522;2022-09-30T04:26:14;14.95;;;8.55;;
58362;SDS011;54977;51.510;7.522;2022-09-30T04:31:19;16.17;;;8.95;;
58362;SDS011;54977;51.510;7.522;2022-09-30T04:36:22;14.25;;;8.65;;
58362;SDS011;54977;51.510;7.522;2022-09-30T04:41:24;17.38;;;9.57;;
58362;SDS011;54977;51.510;7.522;2022-09-30T04:46:26;16.50;;;9.70;;
58362;SDS011;54977;51.510;7.522;2022-09-30T04:51:29;14.45;;;10.25;;
58362;SDS011;54977;51.510;7.522;2022-09-30T04:56:31;19.33;;;11.20;;
58362;SDS011;54977;51.510;7.522;2022-09-30T05:01:32;16.50;;;10.40;;
58362;SDS011;54977;51.510;7.522;2022-09-30T05:06:36;17.52;;;10.45;;
58362;SDS011;54977;51.510;7.522;2022-09-30T05:11:38;15.63;;;10.00;;
58362;SDS011;54977;51.510;7.522;2022-09-30T05:16:41;18.55;;;9.73;;
58362;SDS011;54977;51.510;7.522;2022-09-30T05:21:44;17.35;;;11.38;;
58362;SDS011;54977;51.510;7.522;2022-09-30T05:26:46;20.83;;;12.35;;
58362;SDS011;54977;51.510;7.522;2022-09-30T05:31:48;21.98;;;12.52;;
58362;SDS011;54977;51.510;7.522;2022-09-30T05:36:51;19.98;;;11.82;;
58362;SDS011;54977;51.510;7.522;2022-09-30T05:41:54;20.10;;;11.70;;
58362;SDS011;54977;51.510;7.522;2022-09-30T05:46:56;18.17;;;10.75;;
58362;SDS011;54977;51.510;7.522;2022-09-30T06:02:03;18.45;;;10.10;;
58362;SDS011;54977;51.510;7.522;2022-09-30T06:07:06;18.50;;;10.23;;
58362;SDS011;54977;51.510;7.522;2022-09-30T06:12:08;17.90;;;10.15;;
58362;SDS011;54977;51.510;7.522;2022-09-30T06:17:10;19.38;;;10.45;;
58362;SDS011;54977;51.510;7.522;2022-09-30T06:27:16;24.57;;;11.77;;
58362;SDS011;54977;51.510;7.522;2022-09-30T06:32:18;20.33;;;12.50;;
58362;SDS011;54977;51.510;7.522;2022-09-30T06:37:20;21.90;;;11.95;;
58362;SDS011;54977;51.510;7.522;2022-09-30T06:42:24;19.45;;;12.07;;
58362;SDS011;54977;51.510;7.522;2022-09-30T06:47:26;25.92;;;16.80;;
58362;SDS011;54977;51.510;7.522;2022-09-30T06:57:31;27.70;;;18.98;;
58362;SDS011;54977;51.510;7.522;2022-09-30T07:02:34;22.02;;;13.48;;
58362;SDS011;54977;51.510;7.522;2022-09-30T07:07:38;26.58;;;16.92;;
58362;SDS011;54977;51.510;7.522;2022-09-30T07:12:42;20.90;;;11.82;;
58362;SDS011;54977;51.510;7.522;2022-09-30T07:17:48;21.27;;;13.65;;
58362;SDS011;54977;51.510;7.522;2022-09-30T07:22:51;19.42;;;11.98;;
58362;SDS011;54977;51.510;7.522;2022-09-30T07:27:54;24.45;;;13.40;;
58362;SDS011;54977;51.510;7.522;2022-09-30T07:32:56;21.05;;;12.30;;
58362;SDS011;54977;51.510;7.522;2022-09-30T07:37:58;18.38;;;11.38;;
58362;SDS011;54977;51.510;7.522;2022-09-30T07:43:02;18.08;;;10.80;;
58362;SDS011;54977;51.510;7.522;2022-09-30T07:48:04;20.45;;;11.20;;
58362;SDS011;54977;51.510;7.522;2022-09-30T07:53:26;19.40;;;10.17;;
58362;SDS011;54977;51.510;7.522;2022-09-30T07:58:30;16.50;;;9.98;;
58362;SDS011;54977;51.510;7.522;2022-09-30T08:03:32;13.68;;;8.77;;
58362;SDS011;54977;51.510;7.522;2022-09-30T08:08:35;14.05;;;7.82;;
58362;SDS011;54977;51.510;7.522;2022-09-30T08:13:39;12.80;;;8.07;;
58362;SDS011;54977;51.510;7.522;2022-09-30T08:18:41;11.75;;;8.27;;
58362;SDS011;54977;51.510;7.522;2022-09-30T08:23:43;13.68;;;7.47;;
58362;SDS011;54977;51.510;7.522;2022-09-30T08:28:47;12.60;;;6.63;;
58362;SDS011;54977;51.510;7.522;2022-09-30T08:33:49;15.32;;;8.35;;
58362;SDS011;54977;51.510;7.522;2022-09-30T08:38:51;9.93;;;7.40;;
58362;SDS011;54977;51.510;7.522;2022-09-30T08:43:58;13.52;;;7.65;;
58362;SDS011;54977;51.510;7.522;2022-09-30T08:49:04;27.00;;;17.35;;
58362;SDS011;54977;51.510;7.522;2022-09-30T08:54:12;13.68;;;7.85;;
58362;SDS011;54977;51.510;7.522;2022-09-30T08:59:19;11.32;;;7.15;;
58362;SDS011;54977;51.510;7.522;2022-09-30T09:04:25;13.45;;;7.47;;
58362;SDS011;54977;51.510;7.522;2022-09-30T09:09:40;8.90;;;7.07;;
58362;SDS011;54977;51.510;7.522;2022-09-30T09:14:49;9.75;;;7.60;;
58362;SDS011;54977;51.510;7.522;2022-09-30T09:19:57;9.05;;;6.35;;
58362;SDS011;54977;51.510;7.522;2022-09-30T09:25:03;10.95;;;6.20;;
58362;SDS011;54977;51.510;7.522;2022-09-30T09:30:08;9.55;;;6.03;;
